Change the Weather History Date:

Thursday, March 13, 2014

  Actual Average (KLRD) Record (KLRD)
Temperature  
Mean Temperature 57 °F 68 °F  
Max Temperature 72 °F 79 °F 100 °F (1918)
Min Temperature 42 °F 56 °F 30 °F (1932)
Degree Days  
Heating Degree Days 8 2  
Month to date heating degree days 43  
Since 1 July heating degree days 887  
Cooling Degree Days 0 5  
Month to date cooling degree days 56  
Year to date cooling degree days 141  
Growing Degree Days 7 (Base 50)    
Moisture  
Dew Point 34 °F    
Average Humidity 43    
Maximum Humidity 74    
Minimum Humidity 19    
Precipitation  
Precipitation 0.00 in 0.04 in 0.95 in (1965)
Month to date precipitation 0.51  
Year to date precipitation 2.35  
Sea Level Pressure  
Sea Level Pressure 30.23 in    
Wind  
Wind Speed 3 mph (ESE)    
Max Wind Speed 13 mph    
Max Gust Speed 17 mph    
Visibility 10 miles    
Events      
T = Trace of Precipitation, MM = Missing Value Source: NWS Daily Summary

Daily Weather History Graph

Daily Weather History Graph

Search for Another Location

Airport or City:

Trip Planner

Search our weather history database for the weather conditions in past years. The results will help you decide how hot, cold, wet, or windy it might be!

Date:

Astronomy

Mar. 13, 2014 Rise Set
Actual Time 7:48 AM CDT 7:44 PM CDT
Civil Twilight 7:25 AM CDT 8:07 PM CDT
Nautical Twilight 6:58 AM CDT 8:34 PM CDT
Astronomical Twilight 6:31 AM CDT 9:01 PM CDT
Moon 5:22 PM CDT (3/13) 5:44 AM CDT (3/13)
Length of Visible Light 12h 42m
Length of Day
11h 56m
Waxing Gibbous, 91% of the Moon is Illuminated
Mar 13
Waxing Gibbous
Mar 16
Full
Mar 23
Last Quarter
Mar 30
New
Apr 7
First Quarter

Hourly Weather History & Observations

Time (CDT) Temp. Windchill Dew Point Humidity Pressure Visibility Wind Dir Wind Speed Gust Speed Precip Events Conditions
12:15 AM 54.5 °F - 36.7 °F 51% 30.27 in 10.0 mi Calm Calm - N/A   Clear
12:35 AM 54.9 °F - 34.7 °F 47% 30.27 in 10.0 mi NNE 3.5 mph - N/A   Clear
12:55 AM 54.5 °F - 34.2 °F 46% 30.27 in 10.0 mi NNE 3.5 mph - N/A   Clear
1:15 AM 53.8 °F - 34.7 °F 48% 30.28 in 10.0 mi NE 3.5 mph - N/A   Clear
1:35 AM 52.7 °F - 35.4 °F 52% 30.28 in 10.0 mi Calm Calm - N/A   Clear
1:55 AM 52.0 °F - 35.1 °F 53% 30.28 in 10.0 mi Calm Calm - N/A   Clear
2:15 AM 49.3 °F - 36.7 °F 62% 30.28 in 10.0 mi Calm Calm - N/A   Clear
2:35 AM 49.3 °F - 36.7 °F 62% 30.28 in 10.0 mi Calm Calm - N/A   Clear
2:55 AM 50.9 °F - 34.7 °F 54% 30.27 in 10.0 mi ENE 3.5 mph - N/A   Clear
3:15 AM 50.7 °F - 33.3 °F 51% 30.28 in 10.0 mi Calm Calm - N/A   Clear
3:35 AM 50.0 °F - 32.4 °F 51% 30.27 in 10.0 mi NE 3.5 mph - N/A   Clear
3:55 AM 48.6 °F - 32.9 °F 55% 30.28 in 10.0 mi Calm Calm - N/A   Clear
4:15 AM 46.8 °F - 33.6 °F 60% 30.27 in 10.0 mi Calm Calm - N/A   Clear
4:35 AM 45.5 °F - 34.3 °F 65% 30.27 in 10.0 mi Calm Calm - N/A   Clear
4:55 AM 45.0 °F - 33.6 °F 64% 30.27 in 10.0 mi Calm Calm - N/A   Clear
5:15 AM 45.1 °F - 33.6 °F 64% 30.27 in 10.0 mi Calm Calm - N/A   Clear
5:35 AM 44.6 °F - 33.3 °F 64% 30.27 in 10.0 mi Calm Calm - N/A   Clear
5:55 AM 43.9 °F - 34.0 °F 68% 30.28 in 10.0 mi Calm Calm - N/A   Clear
6:15 AM 43.9 °F - 33.8 °F 68% 30.28 in 10.0 mi Calm Calm - N/A   Clear
6:35 AM 43.2 °F - 34.2 °F 71% 30.29 in 10.0 mi Calm Calm - N/A   Clear
6:55 AM 42.1 °F - 34.3 °F 74% 30.30 in 10.0 mi Calm Calm - N/A   Clear
7:15 AM 42.8 °F 41.1 °F 33.4 °F 70% 30.31 in 10.0 mi WSW 3.5 mph - N/A   Clear
7:35 AM 43.2 °F 40.5 °F 33.1 °F 68% 30.32 in 10.0 mi West 4.6 mph - N/A   Clear
7:55 AM 42.4 °F 39.6 °F 33.3 °F 70% 30.32 in 10.0 mi WNW 4.6 mph - N/A   Clear
8:15 AM 43.2 °F 41.5 °F 34.0 °F 70% 30.32 in 10.0 mi WNW 3.5 mph - N/A   Clear
8:35 AM 45.9 °F 44.6 °F 36.5 °F 70% 30.32 in 10.0 mi NW 3.5 mph - N/A   Clear
8:55 AM 49.5 °F - 36.5 °F 61% 30.33 in 10.0 mi Calm Calm - N/A   Clear
9:15 AM 53.6 °F - 30.2 °F 41% 30.33 in 10.0 mi Calm Calm - N/A   Clear
9:35 AM 55.8 °F - 27.9 °F 34% 30.34 in 10.0 mi Calm Calm - N/A   Clear
9:55 AM 57.6 °F - 27.9 °F 32% 30.35 in 10.0 mi Calm Calm - N/A   Clear
10:15 AM 59.0 °F - 26.4 °F 29% 30.35 in 10.0 mi East 5.8 mph - N/A   Clear
10:35 AM 59.9 °F - 27.5 °F 29% 30.35 in 10.0 mi SE 3.5 mph - N/A   Scattered Clouds
10:55 AM 60.1 °F - 27.0 °F 28% 30.35 in 10.0 mi Calm Calm - N/A   Overcast
11:15 AM 63.1 °F - 25.0 °F 23% 30.33 in 10.0 mi SE 6.9 mph - N/A   Mostly Cloudy
11:35 AM 64.6 °F - 25.2 °F 22% 30.33 in 10.0 mi East 9.2 mph - N/A   Clear
11:55 AM 64.9 °F - 25.3 °F 22% 30.32 in 10.0 mi East 9.2 mph - N/A   Clear
12:15 PM 65.3 °F - 24.3 °F 21% 30.31 in 10.0 mi East 10.4 mph - N/A   Clear
12:35 PM 66.4 °F - 25.0 °F 21% 30.30 in 10.0 mi East 5.8 mph - N/A   Clear
12:55 PM 66.7 °F - 25.3 °F 21% 30.29 in 10.0 mi ESE 9.2 mph - N/A   Clear
1:15 PM 67.6 °F - 26.1 °F 21% 30.27 in 7.0 mi East 4.6 mph - N/A   Clear
1:35 PM 66.7 °F - 23.7 °F 20% 30.25 in 7.0 mi Calm Calm - N/A   Clear
1:55 PM 69.6 °F - 26.2 °F 20% 30.24 in 10.0 mi ENE 6.9 mph - N/A   Clear
2:15 PM 69.6 °F - 26.1 °F 20% 30.23 in 10.0 mi East 8.1 mph - N/A   Clear
2:35 PM 70.2 °F - 27.3 °F 20% 30.21 in 10.0 mi East 9.2 mph - N/A   Clear
2:55 PM 69.8 °F - 25.7 °F 19% 30.20 in 10.0 mi Calm Calm - N/A   Clear
3:15 PM 70.3 °F - 26.1 °F 19% 30.18 in 10.0 mi ENE 3.5 mph 16.1 mph N/A   Clear
3:35 PM 71.6 °F - 28.2 °F 20% 30.17 in 10.0 mi East 3.5 mph - N/A   Clear
3:55 PM 72.5 °F - 30.6 °F 21% 30.15 in 10.0 mi ESE 10.4 mph - N/A   Clear
4:15 PM 71.8 °F - 30.4 °F 22% 30.15 in 10.0 mi East 9.2 mph - N/A   Clear
4:35 PM 71.2 °F - 31.1 °F 23% 30.14 in 10.0 mi Calm Calm - N/A   Clear
4:55 PM 72.5 °F - 32.0 °F 23% 30.13 in 10.0 mi SE 9.2 mph - N/A   Clear
5:15 PM 71.8 °F - 32.2 °F 23% 30.12 in 10.0 mi SE 9.2 mph - N/A   Clear
5:35 PM 72.0 °F - 33.1 °F 24% 30.12 in 10.0 mi SE 8.1 mph 16.1 mph N/A   Clear
5:55 PM 72.0 °F - 33.1 °F 24% 30.12 in 10.0 mi SE 8.1 mph - N/A   Clear
6:15 PM 71.1 °F - 34.5 °F 26% 30.11 in 10.0 mi SE 5.8 mph - N/A   Clear
6:35 PM 70.9 °F - 34.9 °F 27% 30.11 in 10.0 mi SE 9.2 mph - N/A   Clear
6:55 PM 70.0 °F - 35.4 °F 28% 30.11 in 10.0 mi ESE 10.4 mph - N/A   Clear
7:15 PM 69.1 °F - 36.9 °F 31% 30.11 in 10.0 mi SE 10.4 mph - N/A   Clear
7:35 PM 68.0 °F - 37.4 °F 33% 30.11 in 10.0 mi SE 9.2 mph - N/A   Clear
7:55 PM 66.4 °F - 37.8 °F 35% 30.11 in 10.0 mi SE 6.9 mph - N/A   Clear
8:15 PM 65.3 °F - 38.5 °F 37% 30.11 in 10.0 mi SE 4.6 mph - N/A   Clear
8:35 PM 63.7 °F - 39.2 °F 41% 30.11 in 10.0 mi SE 4.6 mph - N/A   Clear
8:55 PM 62.6 °F - 39.7 °F 43% 30.11 in 10.0 mi SE 3.5 mph - N/A   Clear
9:15 PM 61.5 °F - 40.3 °F 46% 30.11 in 10.0 mi SE 3.5 mph - N/A   Clear
9:35 PM 59.7 °F - 41.4 °F 51% 30.11 in 10.0 mi ESE 4.6 mph - N/A   Clear
9:55 PM 61.5 °F - 43.2 °F 51% 30.11 in 10.0 mi ESE 10.4 mph - N/A   Clear
10:15 PM 61.9 °F - 45.7 °F 55% 30.11 in 10.0 mi ESE 10.4 mph - N/A   Clear
10:35 PM 61.3 °F - 47.3 °F 60% 30.12 in 10.0 mi ESE 12.7 mph - N/A   Clear
10:55 PM 61.0 °F - 48.4 °F 63% 30.11 in 10.0 mi ESE 11.5 mph - N/A   Clear
11:15 PM 60.6 °F - 49.1 °F 66% 30.10 in 10.0 mi ESE 11.5 mph 17.3 mph N/A   Clear
11:35 PM 60.4 °F - 49.5 °F 67% 30.10 in 10.0 mi ESE 9.2 mph 16.1 mph N/A   Clear
11:55 PM 60.3 °F - 49.6 °F 68% 30.09 in 10.0 mi ESE 8.1 mph 16.1 mph N/A   Clear